VIP Ground Handling & Aviation Services

 

 
Airport

THESSALONIKI (SKG)

Ground Handling Services – SKG/LGTS

VIP Ground Handling

State Ground Handling

Military Ground Handling

Slot & PPR Coordination

Fuel Arrangements

Crew Accommodation Arrangements

Crew Transportation

Customs & Immigration Assistance

Executive Terminal Services

Crew Lounge

Flight Planning, Weather Briefing and NOTAMs

Catering Arrangements

Security Services

Aircraft Maintenance

Airport Customs & Immigration

Concierge Services

VIP Meet & Greet

Helicopter Transfers

Chauffeur Services

Aircraft Charter

Yacht Charter

Hire & Rental

Entertainment & Hospitality

Health & Beauty

Delivery Services

Conference & Meeting rooms

Thessaloniki Airport Makedonia, Thessaloniki, 551 03

+30 210 35 33 331 (24/7)

+30 694 6200 300 (24/7)

greece@alphajetservices.com

Thessaloniki Airport
Airport Type
•Joint Civil / Military
Operating Hours
•24H
Fuel Available
•JET A1
Fire Category
•8
Approaches
•ILS / DME VOR
Available data for LGTS from the past 2 hours
THESSALONIKI/MIK
Metar
LGTS 260950Z 29009KT CAVOK 33/19 Q1016 NOSIG

09:50 UTC

Wind: 290° 9kt

Visibility:

Sky:

Temp: 33 deg C / 91.4 deg F

Dewpoint: 19 deg C / 66.2 deg F

Pressure: 1016 hPa

TAF
TAF LGTS 260500Z 2606/2706 VRB03KT 9999 FEW030 BECMG 2610/2612 20010KT BECMG 2618/2620 VRB03KT